sensor_id;sensor_type;location;lat;lon;timestamp;P1;durP1;ratioP1;P2;durP2;ratioP2
12484;SDS011;6307;46.804;11.580;2022-08-11T00:01:48;2.30;;;2.00;;
12484;SDS011;6307;46.804;11.580;2022-08-11T00:04:20;2.20;;;2.00;;
12484;SDS011;6307;46.804;11.580;2022-08-11T00:06:49;3.07;;;2.10;;
12484;SDS011;6307;46.804;11.580;2022-08-11T00:09:18;2.80;;;2.30;;
12484;SDS011;6307;46.804;11.580;2022-08-11T00:11:48;4.50;;;2.57;;
12484;SDS011;6307;46.804;11.580;2022-08-11T00:14:36;2.27;;;2.07;;
12484;SDS011;6307;46.804;11.580;2022-08-11T00:17:10;2.30;;;2.10;;
12484;SDS011;6307;46.804;11.580;2022-08-11T00:19:41;3.50;;;2.27;;
12484;SDS011;6307;46.804;11.580;2022-08-11T00:22:12;3.37;;;2.40;;
12484;SDS011;6307;46.804;11.580;2022-08-11T00:24:47;3.50;;;2.60;;
12484;SDS011;6307;46.804;11.580;2022-08-11T00:27:15;3.17;;;2.40;;
12484;SDS011;6307;46.804;11.580;2022-08-11T00:29:51;3.17;;;2.33;;
12484;SDS011;6307;46.804;11.580;2022-08-11T00:32:18;3.80;;;2.23;;
12484;SDS011;6307;46.804;11.580;2022-08-11T00:34:45;5.93;;;2.20;;
12484;SDS011;6307;46.804;11.580;2022-08-11T00:37:17;2.43;;;2.23;;
12484;SDS011;6307;46.804;11.580;2022-08-11T00:39:47;7.53;;;2.90;;
12484;SDS011;6307;46.804;11.580;2022-08-11T00:45:26;4.43;;;2.63;;
12484;SDS011;6307;46.804;11.580;2022-08-11T00:48:06;3.77;;;2.53;;
12484;SDS011;6307;46.804;11.580;2022-08-11T00:50:48;5.73;;;2.60;;
12484;SDS011;6307;46.804;11.580;2022-08-11T01:02:47;4.67;;;2.00;;
12484;SDS011;6307;46.804;11.580;2022-08-11T01:12:38;5.57;;;2.60;;
12484;SDS011;6307;46.804;11.580;2022-08-11T01:42:03;3.17;;;2.40;;
12484;SDS011;6307;46.804;11.580;2022-08-11T01:45:21;4.47;;;2.53;;
12484;SDS011;6307;46.804;11.580;2022-08-11T01:48:33;5.47;;;2.90;;
12484;SDS011;6307;46.804;11.580;2022-08-11T01:54:42;4.00;;;2.57;;
12484;SDS011;6307;46.804;11.580;2022-08-11T01:57:46;3.80;;;2.80;;
12484;SDS011;6307;46.804;11.580;2022-08-11T02:00:47;4.93;;;2.93;;
12484;SDS011;6307;46.804;11.580;2022-08-11T02:06:54;6.03;;;2.77;;
12484;SDS011;6307;46.804;11.580;2022-08-11T02:15:34;3.40;;;2.80;;
12484;SDS011;6307;46.804;11.580;2022-08-11T02:18:43;4.97;;;2.70;;
12484;SDS011;6307;46.804;11.580;2022-08-11T02:21:37;2.63;;;2.27;;
12484;SDS011;6307;46.804;11.580;2022-08-11T02:24:48;3.87;;;2.70;;
12484;SDS011;6307;46.804;11.580;2022-08-11T02:27:48;5.30;;;2.77;;
12484;SDS011;6307;46.804;11.580;2022-08-11T02:30:23;4.07;;;2.93;;
12484;SDS011;6307;46.804;11.580;2022-08-11T02:36:00;2.80;;;2.50;;
12484;SDS011;6307;46.804;11.580;2022-08-11T02:38:54;2.90;;;2.60;;
12484;SDS011;6307;46.804;11.580;2022-08-11T02:48:02;6.57;;;3.07;;
12484;SDS011;6307;46.804;11.580;2022-08-11T02:57:25;2.90;;;2.70;;
12484;SDS011;6307;46.804;11.580;2022-08-11T03:05:47;4.07;;;2.80;;
12484;SDS011;6307;46.804;11.580;2022-08-11T03:15:01;4.30;;;3.10;;
12484;SDS011;6307;46.804;11.580;2022-08-11T03:27:25;2.97;;;2.70;;
12484;SDS011;6307;46.804;11.580;2022-08-11T03:30:09;5.77;;;2.80;;
12484;SDS011;6307;46.804;11.580;2022-08-11T03:41:37;3.97;;;2.70;;
12484;SDS011;6307;46.804;11.580;2022-08-11T03:44:53;3.50;;;2.50;;
12484;SDS011;6307;46.804;11.580;2022-08-11T04:03:51;2.90;;;2.70;;
12484;SDS011;6307;46.804;11.580;2022-08-11T04:12:26;4.03;;;2.47;;
12484;SDS011;6307;46.804;11.580;2022-08-11T04:18:54;2.63;;;2.43;;
12484;SDS011;6307;46.804;11.580;2022-08-11T04:49:17;4.50;;;2.97;;
12484;SDS011;6307;46.804;11.580;2022-08-11T04:52:33;2.90;;;2.57;;
12484;SDS011;6307;46.804;11.580;2022-08-11T05:13:21;6.13;;;3.40;;
12484;SDS011;6307;46.804;11.580;2022-08-11T05:16:26;3.43;;;3.03;;
12484;SDS011;6307;46.804;11.580;2022-08-11T05:19:16;5.97;;;3.67;;
12484;SDS011;6307;46.804;11.580;2022-08-11T05:22:07;6.50;;;3.33;;
12484;SDS011;6307;46.804;11.580;2022-08-11T05:25:13;7.53;;;3.70;;
12484;SDS011;6307;46.804;11.580;2022-08-11T05:28:14;4.30;;;2.80;;
12484;SDS011;6307;46.804;11.580;2022-08-11T05:31:24;5.13;;;3.30;;
12484;SDS011;6307;46.804;11.580;2022-08-11T05:34:19;3.93;;;3.07;;
12484;SDS011;6307;46.804;11.580;2022-08-11T05:37:22;4.63;;;3.60;;
12484;SDS011;6307;46.804;11.580;2022-08-11T05:40:10;3.43;;;3.10;;
12484;SDS011;6307;46.804;11.580;2022-08-11T05:42:58;5.47;;;3.43;;
12484;SDS011;6307;46.804;11.580;2022-08-11T05:45:55;7.03;;;3.53;;
12484;SDS011;6307;46.804;11.580;2022-08-11T05:48:43;4.93;;;3.23;;
12484;SDS011;6307;46.804;11.580;2022-08-11T05:51:37;3.97;;;3.30;;
12484;SDS011;6307;46.804;11.580;2022-08-11T05:54:25;7.00;;;4.10;;
12484;SDS011;6307;46.804;11.580;2022-08-11T05:57:18;6.00;;;4.00;;
12484;SDS011;6307;46.804;11.580;2022-08-11T06:00:05;7.40;;;3.60;;
12484;SDS011;6307;46.804;11.580;2022-08-11T06:02:40;5.57;;;3.57;;
12484;SDS011;6307;46.804;11.580;2022-08-11T06:05:11;3.67;;;3.10;;
12484;SDS011;6307;46.804;11.580;2022-08-11T06:07:38;7.83;;;3.20;;
12484;SDS011;6307;46.804;11.580;2022-08-11T06:10:05;3.70;;;3.23;;
12484;SDS011;6307;46.804;11.580;2022-08-11T06:12:33;6.27;;;3.03;;
12484;SDS011;6307;46.804;11.580;2022-08-11T06:15:10;9.83;;;3.30;;
12484;SDS011;6307;46.804;11.580;2022-08-11T06:17:44;6.63;;;3.10;;
12484;SDS011;6307;46.804;11.580;2022-08-11T06:20:15;5.70;;;2.70;;
12484;SDS011;6307;46.804;11.580;2022-08-11T06:22:44;6.70;;;2.90;;
12484;SDS011;6307;46.804;11.580;2022-08-11T06:25:19;4.63;;;2.50;;
12484;SDS011;6307;46.804;11.580;2022-08-11T06:27:47;3.63;;;2.50;;
12484;SDS011;6307;46.804;11.580;2022-08-11T06:30:21;4.93;;;2.50;;
12484;SDS011;6307;46.804;11.580;2022-08-11T06:32:59;3.20;;;2.90;;
12484;SDS011;6307;46.804;11.580;2022-08-11T06:35:43;3.70;;;2.30;;
12484;SDS011;6307;46.804;11.580;2022-08-11T06:41:04;2.63;;;2.43;;
12484;SDS011;6307;46.804;11.580;2022-08-11T06:46:47;3.13;;;2.00;;
12484;SDS011;6307;46.804;11.580;2022-08-11T06:49:18;4.37;;;2.30;;
12484;SDS011;6307;46.804;11.580;2022-08-11T06:52:07;2.63;;;2.00;;
12484;SDS011;6307;46.804;11.580;2022-08-11T06:54:42;5.33;;;2.13;;
12484;SDS011;6307;46.804;11.580;2022-08-11T06:57:16;6.43;;;2.53;;
12484;SDS011;6307;46.804;11.580;2022-08-11T07:00:03;5.57;;;2.10;;
12484;SDS011;6307;46.804;11.580;2022-08-11T07:05:48;4.70;;;2.30;;
12484;SDS011;6307;46.804;11.580;2022-08-11T07:11:47;3.00;;;2.10;;
12484;SDS011;6307;46.804;11.580;2022-08-11T07:15:00;4.93;;;2.33;;
12484;SDS011;6307;46.804;11.580;2022-08-11T07:17:51;5.73;;;2.20;;
12484;SDS011;6307;46.804;11.580;2022-08-11T07:20:40;4.57;;;2.40;;
12484;SDS011;6307;46.804;11.580;2022-08-11T07:23:28;6.53;;;2.10;;
12484;SDS011;6307;46.804;11.580;2022-08-11T07:26:18;5.87;;;2.30;;
12484;SDS011;6307;46.804;11.580;2022-08-11T07:29:11;4.33;;;2.30;;
12484;SDS011;6307;46.804;11.580;2022-08-11T07:31:40;4.27;;;2.40;;
12484;SDS011;6307;46.804;11.580;2022-08-11T07:34:22;5.63;;;2.17;;
12484;SDS011;6307;46.804;11.580;2022-08-11T07:36:58;4.03;;;2.43;;
12484;SDS011;6307;46.804;11.580;2022-08-11T07:39:34;6.93;;;2.20;;
12484;SDS011;6307;46.804;11.580;2022-08-11T07:42:07;5.83;;;2.27;;
12484;SDS011;6307;46.804;11.580;2022-08-11T07:44:38;3.17;;;2.20;;
12484;SDS011;6307;46.804;11.580;2022-08-11T07:47:25;9.90;;;2.73;;
12484;SDS011;6307;46.804;11.580;2022-08-11T07:50:12;3.37;;;2.40;;
12484;SDS011;6307;46.804;11.580;2022-08-11T07:52:58;10.03;;;2.60;;
12484;SDS011;6307;46.804;11.580;2022-08-11T07:55:26;7.60;;;2.23;;
12484;SDS011;6307;46.804;11.580;2022-08-11T07:57:55;6.33;;;2.40;;
12484;SDS011;6307;46.804;11.580;2022-08-11T08:00:49;3.40;;;2.13;;
12484;SDS011;6307;46.804;11.580;2022-08-11T08:03:40;11.07;;;2.40;;
12484;SDS011;6307;46.804;11.580;2022-08-11T08:06:28;8.40;;;2.37;;
12484;SDS011;6307;46.804;11.580;2022-08-11T08:09:17;6.73;;;2.30;;
12484;SDS011;6307;46.804;11.580;2022-08-11T08:12:05;4.20;;;2.23;;
12484;SDS011;6307;46.804;11.580;2022-08-11T08:14:52;7.10;;;2.17;;
12484;SDS011;6307;46.804;11.580;2022-08-11T08:17:40;4.47;;;2.50;;
12484;SDS011;6307;46.804;11.580;2022-08-11T08:20:28;3.20;;;2.00;;
12484;SDS011;6307;46.804;11.580;2022-08-11T08:23:01;6.27;;;2.60;;
12484;SDS011;6307;46.804;11.580;2022-08-11T08:25:31;13.87;;;2.40;;
12484;SDS011;6307;46.804;11.580;2022-08-11T08:28:05;7.30;;;2.30;;
12484;SDS011;6307;46.804;11.580;2022-08-11T08:30:35;3.83;;;2.17;;
12484;SDS011;6307;46.804;11.580;2022-08-11T08:33:16;5.00;;;2.37;;
12484;SDS011;6307;46.804;11.580;2022-08-11T08:35:50;3.33;;;2.00;;
12484;SDS011;6307;46.804;11.580;2022-08-11T08:38:51;2.63;;;2.00;;
12484;SDS011;6307;46.804;11.580;2022-08-11T08:41:19;3.70;;;2.40;;
12484;SDS011;6307;46.804;11.580;2022-08-11T08:43:53;9.57;;;2.80;;
12484;SDS011;6307;46.804;11.580;2022-08-11T08:46:29;7.03;;;2.60;;
12484;SDS011;6307;46.804;11.580;2022-08-11T08:49:03;10.37;;;2.47;;
12484;SDS011;6307;46.804;11.580;2022-08-11T08:51:31;4.33;;;2.20;;
12484;SDS011;6307;46.804;11.580;2022-08-11T08:54:05;5.23;;;2.60;;
12484;SDS011;6307;46.804;11.580;2022-08-11T08:56:40;7.50;;;2.77;;
12484;SDS011;6307;46.804;11.580;2022-08-11T08:59:10;8.00;;;2.30;;
12484;SDS011;6307;46.804;11.580;2022-08-11T09:01:57;4.83;;;2.47;;
12484;SDS011;6307;46.804;11.580;2022-08-11T09:04:28;3.60;;;2.27;;
12484;SDS011;6307;46.804;11.580;2022-08-11T09:06:58;4.90;;;2.43;;
12484;SDS011;6307;46.804;11.580;2022-08-11T09:09:32;3.17;;;2.00;;
12484;SDS011;6307;46.804;11.580;2022-08-11T09:11:59;3.47;;;2.20;;
12484;SDS011;6307;46.804;11.580;2022-08-11T09:14:36;4.97;;;2.10;;
12484;SDS011;6307;46.804;11.580;2022-08-11T09:17:24;2.43;;;2.10;;
12484;SDS011;6307;46.804;11.580;2022-08-11T09:19:58;3.83;;;2.10;;
12484;SDS011;6307;46.804;11.580;2022-08-11T09:22:35;5.43;;;2.37;;
12484;SDS011;6307;46.804;11.580;2022-08-11T09:25:26;7.90;;;2.00;;
12484;SDS011;6307;46.804;11.580;2022-08-11T09:28:15;4.53;;;2.47;;
12484;SDS011;6307;46.804;11.580;2022-08-11T09:30:46;6.20;;;2.40;;
12484;SDS011;6307;46.804;11.580;2022-08-11T09:33:19;4.77;;;2.30;;
12484;SDS011;6307;46.804;11.580;2022-08-11T09:35:49;5.63;;;2.30;;
12484;SDS011;6307;46.804;11.580;2022-08-11T09:38:17;5.30;;;2.40;;
12484;SDS011;6307;46.804;11.580;2022-08-11T09:41:08;6.80;;;2.40;;
12484;SDS011;6307;46.804;11.580;2022-08-11T09:43:38;7.13;;;2.10;;
12484;SDS011;6307;46.804;11.580;2022-08-11T09:46:27;4.07;;;2.40;;
12484;SDS011;6307;46.804;11.580;2022-08-11T09:48:56;6.67;;;2.63;;
12484;SDS011;6307;46.804;11.580;2022-08-11T09:51:25;3.70;;;2.23;;
12484;SDS011;6307;46.804;11.580;2022-08-11T09:53:58;4.17;;;2.27;;
12484;SDS011;6307;46.804;11.580;2022-08-11T09:56:31;4.13;;;2.30;;
12484;SDS011;6307;46.804;11.580;2022-08-11T09:59:17;7.70;;;2.50;;
12484;SDS011;6307;46.804;11.580;2022-08-11T10:01:47;4.10;;;2.20;;
12484;SDS011;6307;46.804;11.580;2022-08-11T10:04:25;4.63;;;2.23;;
12484;SDS011;6307;46.804;11.580;2022-08-11T10:07:02;3.10;;;2.20;;
12484;SDS011;6307;46.804;11.580;2022-08-11T10:12:09;3.60;;;2.17;;
12484;SDS011;6307;46.804;11.580;2022-08-11T10:14:45;4.93;;;2.20;;
12484;SDS011;6307;46.804;11.580;2022-08-11T10:17:38;3.83;;;2.20;;
12484;SDS011;6307;46.804;11.580;2022-08-11T10:20:31;4.27;;;2.27;;
12484;SDS011;6307;46.804;11.580;2022-08-11T10:23:01;4.83;;;2.23;;
12484;SDS011;6307;46.804;11.580;2022-08-11T10:25:47;3.43;;;2.10;;
12484;SDS011;6307;46.804;11.580;2022-08-11T10:28:33;2.70;;;2.03;;
12484;SDS011;6307;46.804;11.580;2022-08-11T10:31:02;2.63;;;2.10;;
12484;SDS011;6307;46.804;11.580;2022-08-11T10:33:48;3.17;;;2.10;;
12484;SDS011;6307;46.804;11.580;2022-08-11T10:36:28;2.83;;;2.10;;
12484;SDS011;6307;46.804;11.580;2022-08-11T10:38:58;3.53;;;2.40;;
12484;SDS011;6307;46.804;11.580;2022-08-11T10:41:28;3.17;;;2.30;;
12484;SDS011;6307;46.804;11.580;2022-08-11T10:44:17;3.47;;;2.23;;
12484;SDS011;6307;46.804;11.580;2022-08-11T10:46:44;2.90;;;2.20;;
12484;SDS011;6307;46.804;11.580;2022-08-11T10:49:30;2.70;;;2.17;;
12484;SDS011;6307;46.804;11.580;2022-08-11T10:51:57;4.23;;;2.20;;
12484;SDS011;6307;46.804;11.580;2022-08-11T10:54:44;2.57;;;2.13;;
12484;SDS011;6307;46.804;11.580;2022-08-11T10:57:29;4.67;;;2.00;;
12484;SDS011;6307;46.804;11.580;2022-08-11T11:00:14;4.50;;;2.40;;
12484;SDS011;6307;46.804;11.580;2022-08-11T11:02:42;3.13;;;2.10;;
12484;SDS011;6307;46.804;11.580;2022-08-11T11:05:28;5.73;;;2.13;;
12484;SDS011;6307;46.804;11.580;2022-08-11T11:08:00;4.80;;;2.20;;
12484;SDS011;6307;46.804;11.580;2022-08-11T11:10:59;3.13;;;2.47;;
12484;SDS011;6307;46.804;11.580;2022-08-11T11:13:28;4.70;;;2.30;;
12484;SDS011;6307;46.804;11.580;2022-08-11T11:16:16;2.60;;;1.93;;
12484;SDS011;6307;46.804;11.580;2022-08-11T11:19:10;5.03;;;2.30;;
12484;SDS011;6307;46.804;11.580;2022-08-11T11:21:44;5.27;;;2.20;;
12484;SDS011;6307;46.804;11.580;2022-08-11T11:27:24;3.90;;;2.60;;
12484;SDS011;6307;46.804;11.580;2022-08-11T11:30:07;4.53;;;2.30;;
12484;SDS011;6307;46.804;11.580;2022-08-11T11:32:54;2.90;;;2.30;;
12484;SDS011;6307;46.804;11.580;2022-08-11T11:35:49;3.37;;;2.30;;
12484;SDS011;6307;46.804;11.580;2022-08-11T11:38:29;4.80;;;2.23;;
12484;SDS011;6307;46.804;11.580;2022-08-11T11:40:55;3.33;;;2.17;;
12484;SDS011;6307;46.804;11.580;2022-08-11T11:43:40;3.20;;;1.80;;
12484;SDS011;6307;46.804;11.580;2022-08-11T11:46:07;3.83;;;2.13;;
12484;SDS011;6307;46.804;11.580;2022-08-11T11:48:34;4.67;;;2.40;;
12484;SDS011;6307;46.804;11.580;2022-08-11T11:51:01;2.30;;;2.10;;
12484;SDS011;6307;46.804;11.580;2022-08-11T11:53:28;3.40;;;2.20;;
12484;SDS011;6307;46.804;11.580;2022-08-11T11:55:55;6.97;;;2.40;;
12484;SDS011;6307;46.804;11.580;2022-08-11T11:58:24;3.17;;;1.90;;
12484;SDS011;6307;46.804;11.580;2022-08-11T12:01:11;4.60;;;2.10;;
12484;SDS011;6307;46.804;11.580;2022-08-11T12:03:44;7.13;;;2.40;;
12484;SDS011;6307;46.804;11.580;2022-08-11T12:06:14;2.83;;;2.50;;
12484;SDS011;6307;46.804;11.580;2022-08-11T12:08:46;2.40;;;2.20;;
12484;SDS011;6307;46.804;11.580;2022-08-11T12:11:16;9.37;;;2.50;;
12484;SDS011;6307;46.804;11.580;2022-08-11T12:14:05;3.80;;;2.17;;
12484;SDS011;6307;46.804;11.580;2022-08-11T12:16:35;3.77;;;2.33;;
12484;SDS011;6307;46.804;11.580;2022-08-11T12:19:08;4.90;;;2.50;;
12484;SDS011;6307;46.804;11.580;2022-08-11T12:21:42;3.83;;;2.30;;
12484;SDS011;6307;46.804;11.580;2022-08-11T12:24:29;5.20;;;2.30;;
12484;SDS011;6307;46.804;11.580;2022-08-11T12:27:17;4.10;;;2.47;;
12484;SDS011;6307;46.804;11.580;2022-08-11T12:29:50;6.60;;;2.60;;
12484;SDS011;6307;46.804;11.580;2022-08-11T12:32:30;4.87;;;2.40;;
12484;SDS011;6307;46.804;11.580;2022-08-11T12:34:58;6.53;;;2.20;;
12484;SDS011;6307;46.804;11.580;2022-08-11T12:37:34;6.30;;;2.10;;
12484;SDS011;6307;46.804;11.580;2022-08-11T12:40:06;3.80;;;2.50;;
12484;SDS011;6307;46.804;11.580;2022-08-11T12:42:57;2.73;;;2.10;;
12484;SDS011;6307;46.804;11.580;2022-08-11T12:45:45;3.10;;;2.13;;
12484;SDS011;6307;46.804;11.580;2022-08-11T12:48:23;4.00;;;2.13;;
12484;SDS011;6307;46.804;11.580;2022-08-11T12:51:18;2.20;;;2.00;;
12484;SDS011;6307;46.804;11.580;2022-08-11T12:54:11;9.73;;;2.30;;
12484;SDS011;6307;46.804;11.580;2022-08-11T12:56:44;2.53;;;1.90;;
12484;SDS011;6307;46.804;11.580;2022-08-11T12:59:34;3.40;;;2.00;;
12484;SDS011;6307;46.804;11.580;2022-08-11T13:02:21;6.13;;;2.33;;
12484;SDS011;6307;46.804;11.580;2022-08-11T13:05:10;2.70;;;2.03;;
12484;SDS011;6307;46.804;11.580;2022-08-11T13:07:40;4.90;;;2.60;;
12484;SDS011;6307;46.804;11.580;2022-08-11T13:10:10;3.83;;;2.17;;
12484;SDS011;6307;46.804;11.580;2022-08-11T13:12:39;6.53;;;2.07;;
12484;SDS011;6307;46.804;11.580;2022-08-11T13:15:16;2.90;;;2.10;;
12484;SDS011;6307;46.804;11.580;2022-08-11T13:17:53;4.17;;;2.10;;
12484;SDS011;6307;46.804;11.580;2022-08-11T13:20:20;5.20;;;2.23;;
12484;SDS011;6307;46.804;11.580;2022-08-11T13:22:50;4.97;;;2.20;;
12484;SDS011;6307;46.804;11.580;2022-08-11T13:25:21;3.90;;;2.10;;
12484;SDS011;6307;46.804;11.580;2022-08-11T13:27:52;7.83;;;2.20;;
12484;SDS011;6307;46.804;11.580;2022-08-11T13:30:22;5.63;;;2.10;;
12484;SDS011;6307;46.804;11.580;2022-08-11T13:33:11;3.80;;;2.10;;
12484;SDS011;6307;46.804;11.580;2022-08-11T13:35:44;2.43;;;2.10;;
12484;SDS011;6307;46.804;11.580;2022-08-11T13:38:13;5.33;;;2.30;;
12484;SDS011;6307;46.804;11.580;2022-08-11T13:40:42;4.00;;;2.23;;
12484;SDS011;6307;46.804;11.580;2022-08-11T13:43:12;2.87;;;2.20;;
12484;SDS011;6307;46.804;11.580;2022-08-11T13:45:39;3.80;;;2.20;;
12484;SDS011;6307;46.804;11.580;2022-08-11T13:48:08;3.40;;;2.30;;
12484;SDS011;6307;46.804;11.580;2022-08-11T13:50:37;5.90;;;2.23;;
12484;SDS011;6307;46.804;11.580;2022-08-11T13:53:23;4.33;;;2.27;;
12484;SDS011;6307;46.804;11.580;2022-08-11T13:55:53;3.47;;;2.30;;
12484;SDS011;6307;46.804;11.580;2022-08-11T13:58:23;5.13;;;2.30;;
12484;SDS011;6307;46.804;11.580;2022-08-11T14:00:52;4.03;;;2.40;;
12484;SDS011;6307;46.804;11.580;2022-08-11T14:03:22;2.17;;;1.97;;
12484;SDS011;6307;46.804;11.580;2022-08-11T14:05:52;3.63;;;2.20;;
12484;SDS011;6307;46.804;11.580;2022-08-11T14:08:25;2.73;;;2.23;;
12484;SDS011;6307;46.804;11.580;2022-08-11T14:10:58;2.77;;;2.27;;
12484;SDS011;6307;46.804;11.580;2022-08-11T14:13:46;3.10;;;2.03;;
12484;SDS011;6307;46.804;11.580;2022-08-11T14:16:21;3.50;;;2.60;;
12484;SDS011;6307;46.804;11.580;2022-08-11T14:19:05;3.63;;;2.30;;
12484;SDS011;6307;46.804;11.580;2022-08-11T14:21:39;4.27;;;2.23;;
12484;SDS011;6307;46.804;11.580;2022-08-11T14:24:27;3.50;;;2.40;;
12484;SDS011;6307;46.804;11.580;2022-08-11T14:26:55;3.87;;;2.30;;
12484;SDS011;6307;46.804;11.580;2022-08-11T14:29:24;2.40;;;2.20;;
12484;SDS011;6307;46.804;11.580;2022-08-11T14:31:55;3.97;;;2.10;;
12484;SDS011;6307;46.804;11.580;2022-08-11T14:34:26;3.63;;;2.20;;
12484;SDS011;6307;46.804;11.580;2022-08-11T14:36:56;2.60;;;2.10;;
12484;SDS011;6307;46.804;11.580;2022-08-11T14:39:31;3.97;;;2.00;;
12484;SDS011;6307;46.804;11.580;2022-08-11T14:42:05;3.80;;;2.20;;
12484;SDS011;6307;46.804;11.580;2022-08-11T14:44:52;2.87;;;2.10;;
12484;SDS011;6307;46.804;11.580;2022-08-11T14:47:42;3.53;;;2.30;;
12484;SDS011;6307;46.804;11.580;2022-08-11T14:50:13;2.30;;;2.10;;
12484;SDS011;6307;46.804;11.580;2022-08-11T14:55:28;3.43;;;1.87;;
12484;SDS011;6307;46.804;11.580;2022-08-11T14:58:19;2.40;;;1.60;;
12484;SDS011;6307;46.804;11.580;2022-08-11T15:00:50;3.27;;;1.83;;
12484;SDS011;6307;46.804;11.580;2022-08-11T15:03:21;1.97;;;1.87;;
12484;SDS011;6307;46.804;11.580;2022-08-11T15:05:51;1.77;;;1.50;;
12484;SDS011;6307;46.804;11.580;2022-08-11T15:08:33;3.00;;;1.60;;
12484;SDS011;6307;46.804;11.580;2022-08-11T15:11:19;1.70;;;1.57;;
12484;SDS011;6307;46.804;11.580;2022-08-11T15:14:12;3.23;;;1.40;;
12484;SDS011;6307;46.804;11.580;2022-08-11T15:16:59;3.20;;;1.80;;
12484;SDS011;6307;46.804;11.580;2022-08-11T15:19:33;5.10;;;1.50;;
12484;SDS011;6307;46.804;11.580;2022-08-11T15:22:23;3.40;;;1.50;;
12484;SDS011;6307;46.804;11.580;2022-08-11T15:25:08;3.37;;;1.60;;
12484;SDS011;6307;46.804;11.580;2022-08-11T15:27:34;2.40;;;1.43;;
12484;SDS011;6307;46.804;11.580;2022-08-11T15:30:22;1.43;;;1.33;;
12484;SDS011;6307;46.804;11.580;2022-08-11T15:33:09;3.07;;;1.50;;
12484;SDS011;6307;46.804;11.580;2022-08-11T15:35:57;1.77;;;1.63;;
12484;SDS011;6307;46.804;11.580;2022-08-11T15:38:57;2.33;;;1.60;;
12484;SDS011;6307;46.804;11.580;2022-08-11T15:41:45;2.17;;;1.90;;
12484;SDS011;6307;46.804;11.580;2022-08-11T15:44:43;2.13;;;1.63;;
12484;SDS011;6307;46.804;11.580;2022-08-11T15:47:40;3.10;;;1.60;;
12484;SDS011;6307;46.804;11.580;2022-08-11T15:50:13;1.67;;;1.57;;
12484;SDS011;6307;46.804;11.580;2022-08-11T15:52:49;1.57;;;1.47;;
12484;SDS011;6307;46.804;11.580;2022-08-11T15:55:23;4.27;;;1.80;;
12484;SDS011;6307;46.804;11.580;2022-08-11T15:57:54;1.50;;;1.40;;
12484;SDS011;6307;46.804;11.580;2022-08-11T16:00:44;2.17;;;1.77;;
12484;SDS011;6307;46.804;11.580;2022-08-11T16:03:34;3.10;;;1.60;;
12484;SDS011;6307;46.804;11.580;2022-08-11T16:06:31;2.17;;;1.60;;
12484;SDS011;6307;46.804;11.580;2022-08-11T16:09:02;1.77;;;1.67;;
12484;SDS011;6307;46.804;11.580;2022-08-11T16:11:33;2.93;;;1.60;;
12484;SDS011;6307;46.804;11.580;2022-08-11T16:14:02;3.87;;;1.80;;
12484;SDS011;6307;46.804;11.580;2022-08-11T16:16:50;3.53;;;2.00;;
12484;SDS011;6307;46.804;11.580;2022-08-11T16:19:18;1.97;;;1.77;;
12484;SDS011;6307;46.804;11.580;2022-08-11T16:21:48;1.80;;;1.70;;
12484;SDS011;6307;46.804;11.580;2022-08-11T16:24:19;2.07;;;1.60;;
12484;SDS011;6307;46.804;11.580;2022-08-11T16:26:48;2.60;;;1.77;;
12484;SDS011;6307;46.804;11.580;2022-08-11T16:29:19;2.20;;;1.90;;
12484;SDS011;6307;46.804;11.580;2022-08-11T16:31:49;4.77;;;2.47;;
12484;SDS011;6307;46.804;11.580;2022-08-11T16:34:37;2.23;;;1.80;;
12484;SDS011;6307;46.804;11.580;2022-08-11T16:37:24;2.53;;;1.83;;
12484;SDS011;6307;46.804;11.580;2022-08-11T16:40:10;3.53;;;1.80;;
12484;SDS011;6307;46.804;11.580;2022-08-11T16:42:39;4.77;;;2.23;;
12484;SDS011;6307;46.804;11.580;2022-08-11T16:45:26;2.47;;;1.90;;
12484;SDS011;6307;46.804;11.580;2022-08-11T16:48:12;2.90;;;2.00;;
12484;SDS011;6307;46.804;11.580;2022-08-11T16:50:39;4.67;;;1.90;;
12484;SDS011;6307;46.804;11.580;2022-08-11T16:53:06;2.00;;;1.87;;
12484;SDS011;6307;46.804;11.580;2022-08-11T16:55:33;1.97;;;1.87;;
12484;SDS011;6307;46.804;11.580;2022-08-11T16:58:00;2.70;;;1.90;;
12484;SDS011;6307;46.804;11.580;2022-08-11T17:00:48;3.50;;;2.10;;
12484;SDS011;6307;46.804;11.580;2022-08-11T17:03:17;3.00;;;1.90;;
12484;SDS011;6307;46.804;11.580;2022-08-11T17:06:04;4.10;;;1.90;;
12484;SDS011;6307;46.804;11.580;2022-08-11T17:08:53;3.37;;;2.00;;
12484;SDS011;6307;46.804;11.580;2022-08-11T17:11:39;3.13;;;2.17;;
12484;SDS011;6307;46.804;11.580;2022-08-11T17:14:34;2.07;;;1.87;;
12484;SDS011;6307;46.804;11.580;2022-08-11T17:17:35;2.13;;;1.87;;
12484;SDS011;6307;46.804;11.580;2022-08-11T17:20:04;3.33;;;2.00;;
12484;SDS011;6307;46.804;11.580;2022-08-11T17:22:35;2.40;;;2.20;;
12484;SDS011;6307;46.804;11.580;2022-08-11T17:25:23;2.83;;;1.90;;
12484;SDS011;6307;46.804;11.580;2022-08-11T17:27:52;5.77;;;2.30;;
12484;SDS011;6307;46.804;11.580;2022-08-11T17:30:20;2.77;;;1.90;;
12484;SDS011;6307;46.804;11.580;2022-08-11T17:33:09;3.30;;;1.90;;
12484;SDS011;6307;46.804;11.580;2022-08-11T17:35:56;3.93;;;2.13;;
12484;SDS011;6307;46.804;11.580;2022-08-11T17:38:25;2.37;;;1.93;;
12484;SDS011;6307;46.804;11.580;2022-08-11T17:40:55;2.27;;;1.97;;
12484;SDS011;6307;46.804;11.580;2022-08-11T17:43:44;3.83;;;2.00;;
12484;SDS011;6307;46.804;11.580;2022-08-11T17:46:32;2.30;;;2.10;;
12484;SDS011;6307;46.804;11.580;2022-08-11T17:49:19;3.50;;;2.10;;
12484;SDS011;6307;46.804;11.580;2022-08-11T17:51:47;1.80;;;1.70;;
12484;SDS011;6307;46.804;11.580;2022-08-11T17:54:34;2.20;;;2.00;;
12484;SDS011;6307;46.804;11.580;2022-08-11T17:57:22;2.77;;;2.00;;
12484;SDS011;6307;46.804;11.580;2022-08-11T18:00:08;3.70;;;2.10;;
12484;SDS011;6307;46.804;11.580;2022-08-11T18:02:38;3.50;;;2.40;;
12484;SDS011;6307;46.804;11.580;2022-08-11T18:05:27;2.90;;;2.10;;
12484;SDS011;6307;46.804;11.580;2022-08-11T18:07:59;3.83;;;2.20;;
12484;SDS011;6307;46.804;11.580;2022-08-11T18:10:50;3.20;;;2.13;;
12484;SDS011;6307;46.804;11.580;2022-08-11T18:13:40;2.87;;;2.00;;
12484;SDS011;6307;46.804;11.580;2022-08-11T18:16:27;2.73;;;1.90;;
12484;SDS011;6307;46.804;11.580;2022-08-11T18:19:12;4.10;;;2.20;;
12484;SDS011;6307;46.804;11.580;2022-08-11T18:22:00;3.57;;;2.10;;
12484;SDS011;6307;46.804;11.580;2022-08-11T18:25:00;2.33;;;2.10;;
12484;SDS011;6307;46.804;11.580;2022-08-11T18:27:51;2.77;;;2.20;;
12484;SDS011;6307;46.804;11.580;2022-08-11T18:30:39;2.40;;;2.10;;
12484;SDS011;6307;46.804;11.580;2022-08-11T18:33:31;4.67;;;2.30;;
12484;SDS011;6307;46.804;11.580;2022-08-11T18:36:26;4.00;;;2.33;;
12484;SDS011;6307;46.804;11.580;2022-08-11T18:39:21;2.97;;;2.30;;
12484;SDS011;6307;46.804;11.580;2022-08-11T18:42:11;2.80;;;1.90;;
12484;SDS011;6307;46.804;11.580;2022-08-11T18:45:01;2.50;;;2.20;;
12484;SDS011;6307;46.804;11.580;2022-08-11T18:47:51;3.70;;;2.10;;
12484;SDS011;6307;46.804;11.580;2022-08-11T18:50:44;2.30;;;2.10;;
12484;SDS011;6307;46.804;11.580;2022-08-11T18:53:31;3.07;;;2.23;;
12484;SDS011;6307;46.804;11.580;2022-08-11T18:56:21;2.30;;;2.10;;
12484;SDS011;6307;46.804;11.580;2022-08-11T18:59:10;2.60;;;2.40;;
12484;SDS011;6307;46.804;11.580;2022-08-11T19:01:56;2.37;;;2.07;;
12484;SDS011;6307;46.804;11.580;2022-08-11T19:04:42;2.40;;;2.20;;
12484;SDS011;6307;46.804;11.580;2022-08-11T19:07:29;3.03;;;2.30;;
12484;SDS011;6307;46.804;11.580;2022-08-11T19:10:16;2.60;;;2.40;;
12484;SDS011;6307;46.804;11.580;2022-08-11T19:13:05;2.27;;;2.07;;
12484;SDS011;6307;46.804;11.580;2022-08-11T19:15:52;2.20;;;2.00;;
12484;SDS011;6307;46.804;11.580;2022-08-11T19:18:38;3.27;;;2.30;;
12484;SDS011;6307;46.804;11.580;2022-08-11T19:21:27;3.07;;;2.20;;
12484;SDS011;6307;46.804;11.580;2022-08-11T19:24:13;4.10;;;2.00;;
12484;SDS011;6307;46.804;11.580;2022-08-11T19:26:59;3.33;;;2.10;;